createdAt,value
2023-04-02T00:09:57.744Z,0
2023-04-02T00:24:53.868Z,0
2023-04-02T00:39:49.602Z,0
2023-04-02T00:54:46.375Z,0
2023-04-02T01:09:42.586Z,0
2023-04-02T01:24:38.831Z,0
2023-04-02T01:39:35.084Z,0
2023-04-02T01:54:31.591Z,0
2023-04-02T02:09:27.730Z,0
2023-04-02T02:24:24.400Z,0
2023-04-02T02:39:20.121Z,0
2023-04-02T02:54:15.972Z,0
2023-04-02T03:09:12.529Z,0
2023-04-02T03:24:08.747Z,0
2023-04-02T03:39:04.450Z,0
2023-04-02T03:54:00.989Z,0
2023-04-02T04:08:57.355Z,0
2023-04-02T04:23:53.569Z,0
2023-04-02T04:38:49.885Z,0
2023-04-02T04:53:46.153Z,0
2023-04-02T05:08:42.251Z,0.02
2023-04-02T05:23:38.562Z,0.02
2023-04-02T05:38:34.641Z,0.03
2023-04-02T05:53:31.108Z,0.01
2023-04-02T06:23:23.036Z,0.05
2023-04-02T06:38:19.323Z,0.04
2023-04-02T06:53:15.357Z,0.05
2023-04-02T07:08:11.857Z,0.06
2023-04-02T07:23:07.894Z,0.06
2023-04-02T07:34:22.957Z,0.06
2023-04-02T07:49:18.917Z,0.1
2023-04-02T08:04:15.722Z,0.08
2023-04-02T08:19:11.583Z,0.08
2023-04-02T08:34:07.926Z,0
2023-04-02T08:49:03.742Z,0.06
2023-04-02T09:03:59.710Z,0.08
2023-04-02T09:18:56.205Z,0.08
2023-04-02T09:33:52.954Z,0.1
2023-04-02T09:48:48.909Z,0.11
2023-04-02T10:03:45.428Z,0.13
2023-04-02T10:18:42.476Z,0.07
2023-04-02T10:33:38.785Z,0.14
2023-04-02T10:48:35.007Z,0.11
2023-04-02T11:03:31.376Z,0.11
2023-04-02T11:18:27.090Z,0.19
2023-04-02T11:33:30.148Z,0.15
2023-04-02T11:48:19.834Z,0.14
2023-04-02T12:03:16.170Z,0.19
2023-04-02T12:18:12.257Z,0.17
2023-04-02T12:33:08.627Z,0.17
2023-04-02T12:48:05.053Z,0.14
2023-04-02T13:03:00.896Z,0.21
2023-04-02T13:17:57.405Z,0.11
2023-04-02T13:32:53.753Z,0.13
2023-04-02T13:47:50.396Z,0.2
2023-04-02T14:02:46.928Z,0.13
2023-04-02T14:17:43.233Z,0.1
2023-04-02T14:32:39.595Z,0.09
